createdAt,value
2018-06-28T00:00:14.486Z,93.70
2018-06-28T00:02:42.890Z,93.80
2018-06-28T00:05:11.341Z,93.70
2018-06-28T00:07:39.802Z,94.00
2018-06-28T00:10:08.251Z,94.10
2018-06-28T00:12:36.786Z,94.10
2018-06-28T00:15:05.571Z,94.10
2018-06-28T00:17:33.980Z,94.20
2018-06-28T00:22:30.580Z,94.20
2018-06-28T00:24:59.015Z,94.20
2018-06-28T00:27:27.437Z,94.50
2018-06-28T00:29:55.918Z,94.60
2018-06-28T00:32:24.355Z,94.80
2018-06-28T00:34:52.838Z,94.70
2018-06-28T00:37:21.286Z,94.90
2018-06-28T00:39:49.745Z,95.00
2018-06-28T00:42:18.178Z,95.10
2018-06-28T00:44:46.641Z,95.30
2018-06-28T00:49:43.225Z,95.60
2018-06-28T00:52:11.707Z,95.60
2018-06-28T00:54:40.162Z,95.10
2018-06-28T00:59:36.754Z,95.10
2018-06-28T01:02:05.241Z,95.10
2018-06-28T01:04:33.682Z,95.50
2018-06-28T01:07:02.171Z,95.30
2018-06-28T01:09:30.610Z,95.60
2018-06-28T01:11:59.101Z,95.90
2018-06-28T01:14:27.555Z,95.70
2018-06-28T01:16:56.017Z,95.70
2018-06-28T01:19:24.466Z,95.60
2018-06-28T01:21:52.909Z,95.60
2018-06-28T01:24:21.519Z,95.50
2018-06-28T01:26:49.985Z,95.50
2018-06-28T01:29:18.475Z,95.60
2018-06-28T01:31:46.937Z,95.50
2018-06-28T01:34:15.422Z,95.70
2018-06-28T01:36:43.857Z,95.90
2018-06-28T01:39:12.633Z,96.20
2018-06-28T01:41:52.970Z,96.30
2018-06-28T01:44:21.441Z,96.50
2018-06-28T01:49:18.051Z,96.50
2018-06-28T01:51:46.449Z,96.60
2018-06-28T01:54:14.921Z,96.50
2018-06-28T01:56:43.341Z,96.70
2018-06-28T01:59:11.767Z,96.40
2018-06-28T02:01:40.198Z,96.60
2018-06-28T02:04:08.661Z,96.50
2018-06-28T02:06:37.088Z,97.00
2018-06-28T02:09:08.145Z,96.70
2018-06-28T02:11:36.610Z,97.00
2018-06-28T02:14:05.091Z,97.10
2018-06-28T02:16:33.542Z,97.00
2018-06-28T02:19:01.994Z,97.30
2018-06-28T02:21:30.449Z,97.20
2018-06-28T02:23:58.914Z,97.40
2018-06-28T02:26:27.366Z,97.50
2018-06-28T02:28:55.826Z,97.40
2018-06-28T02:33:52.462Z,97.50
2018-06-28T02:36:20.901Z,98.10
2018-06-28T02:38:49.333Z,98.10
2018-06-28T02:41:17.790Z,98.40
2018-06-28T02:43:46.231Z,98.40
2018-06-28T02:46:14.702Z,98.60
2018-06-28T02:48:43.463Z,98.60
2018-06-28T02:51:11.926Z,98.70
2018-06-28T02:53:40.352Z,98.70
2018-06-28T02:56:08.814Z,98.70
2018-06-28T02:58:37.268Z,98.90
2018-06-28T03:01:05.714Z,99.20
2018-06-28T03:03:34.145Z,99.30
2018-06-28T03:08:30.906Z,99.70
2018-06-28T03:13:27.502Z,99.90
2018-06-28T03:15:55.972Z,99.90
2018-06-28T03:18:25.287Z,99.90
2018-06-28T03:20:53.730Z,99.90
2018-06-28T03:23:22.200Z,99.90
2018-06-28T03:25:50.649Z,99.90
2018-06-28T03:28:19.122Z,99.90
2018-06-28T03:30:47.634Z,99.90
2018-06-28T03:33:16.029Z,99.90
2018-06-28T03:35:44.474Z,99.90
2018-06-28T03:38:12.922Z,99.90
2018-06-28T03:40:41.371Z,99.90
2018-06-28T03:43:09.869Z,99.90
2018-06-28T03:45:38.301Z,99.90
2018-06-28T03:48:06.787Z,99.90
2018-06-28T03:50:35.223Z,99.90
2018-06-28T03:53:03.706Z,99.90
2018-06-28T03:55:32.153Z,99.90
2018-06-28T03:58:00.603Z,99.90
2018-06-28T04:00:29.068Z,99.90
2018-06-28T04:02:57.786Z,99.90
2018-06-28T04:05:26.544Z,99.90
2018-06-28T04:07:54.978Z,99.90
2018-06-28T04:10:23.433Z,99.90
2018-06-28T04:12:51.893Z,99.90
2018-06-28T04:15:20.607Z,99.90
2018-06-28T04:17:49.051Z,99.90
2018-06-28T04:20:17.509Z,99.90
2018-06-28T04:22:45.945Z,99.60
2018-06-28T04:25:14.419Z,99.60
2018-06-28T04:27:42.875Z,99.30
2018-06-28T04:30:11.355Z,99.30
2018-06-28T04:32:39.789Z,99.60
2018-06-28T04:35:08.262Z,99.50
2018-06-28T04:37:36.696Z,99.50
2018-06-28T04:40:05.152Z,99.60
2018-06-28T04:42:33.595Z,99.90
2018-06-28T04:45:02.074Z,99.80
2018-06-28T04:47:30.493Z,99.80
2018-06-28T04:49:58.914Z,99.80
2018-06-28T04:52:27.379Z,99.60
2018-06-28T04:54:55.806Z,99.40
2018-06-28T04:57:24.256Z,99.00
2018-06-28T04:59:52.696Z,98.80
2018-06-28T05:02:21.158Z,98.50
2018-06-28T05:04:49.595Z,98.20
2018-06-28T05:07:18.037Z,98.20
2018-06-28T05:09:46.461Z,97.90
2018-06-28T05:12:14.945Z,97.80
2018-06-28T05:14:43.402Z,98.50
2018-06-28T05:19:40.055Z,97.80
2018-06-28T05:22:08.486Z,97.80
2018-06-28T05:24:36.964Z,97.10
2018-06-28T05:27:05.672Z,96.90
2018-06-28T05:29:34.161Z,96.60
2018-06-28T05:32:02.617Z,97.10
2018-06-28T05:34:31.095Z,96.70
2018-06-28T05:36:59.529Z,96.60
2018-06-28T05:39:27.974Z,96.40
2018-06-28T05:41:56.422Z,95.80
2018-06-28T05:44:24.914Z,96.40
2018-06-28T05:46:53.368Z,96.00
2018-06-28T05:49:21.872Z,96.30
2018-06-28T05:51:50.277Z,95.80
2018-06-28T05:54:18.798Z,95.80
2018-06-28T05:56:47.249Z,95.60
2018-06-28T06:01:43.891Z,95.60
2018-06-28T06:04:12.358Z,95.00
2018-06-28T06:06:40.806Z,95.30
2018-06-28T06:09:10.706Z,95.20
2018-06-28T06:11:39.158Z,95.70
2018-06-28T06:14:07.877Z,94.70
2018-06-28T06:16:36.969Z,94.90
2018-06-28T06:19:05.701Z,95.00
2018-06-28T06:21:34.295Z,94.30
2018-06-28T06:24:02.813Z,94.20
2018-06-28T06:26:31.274Z,93.50
2018-06-28T06:31:27.907Z,93.00
2018-06-28T06:33:56.485Z,92.90
2018-06-28T06:36:24.985Z,92.90
2018-06-28T06:38:53.458Z,92.80
2018-06-28T06:41:22.034Z,92.90
2018-06-28T06:43:50.533Z,92.90
2018-06-28T06:46:18.994Z,92.30
2018-06-28T06:48:47.477Z,92.60
2018-06-28T06:51:15.941Z,92.10
2018-06-28T06:53:44.382Z,91.90
2018-06-28T06:56:12.848Z,92.10
2018-06-28T06:58:41.322Z,91.50
2018-06-28T07:01:09.753Z,91.20
2018-06-28T07:03:38.258Z,91.40
2018-06-28T07:06:06.696Z,91.90
2018-06-28T07:08:35.222Z,91.00
2018-06-28T07:11:03.719Z,90.70
2018-06-28T07:16:00.427Z,90.70
2018-06-28T07:18:28.838Z,90.10
2018-06-28T07:20:57.290Z,90.40
2018-06-28T07:23:25.778Z,90.40
2018-06-28T07:25:54.252Z,90.20
2018-06-28T07:28:22.814Z,90.10
2018-06-28T07:30:51.204Z,89.70
2018-06-28T07:33:19.657Z,90.00
2018-06-28T07:35:48.106Z,89.10
2018-06-28T07:40:44.732Z,90.00
2018-06-28T07:43:13.214Z,88.60
2018-06-28T07:45:41.680Z,89.40
2018-06-28T07:48:10.142Z,89.70
2018-06-28T07:50:38.587Z,89.60
2018-06-28T07:53:07.062Z,87.50
2018-06-28T07:55:35.533Z,87.20
2018-06-28T07:58:04.029Z,87.40
2018-06-28T08:00:32.465Z,86.50
2018-06-28T08:03:00.898Z,86.10
2018-06-28T08:05:29.521Z,85.50
2018-06-28T08:07:57.958Z,85.20
2018-06-28T08:10:26.437Z,85.90
2018-06-28T08:12:54.901Z,86.10
2018-06-28T08:17:51.539Z,85.90
2018-06-28T08:20:20.008Z,86.30
2018-06-28T08:22:48.477Z,83.70
2018-06-28T08:25:17.042Z,83.90
2018-06-28T08:27:45.534Z,83.60
2018-06-28T08:30:13.994Z,84.10
2018-06-28T08:32:42.442Z,81.60
2018-06-28T08:37:39.041Z,80.90
2018-06-28T08:40:07.529Z,80.70
2018-06-28T08:42:35.982Z,81.60
2018-06-28T08:45:04.582Z,82.10
2018-06-28T08:47:33.037Z,78.90
2018-06-28T08:50:01.488Z,81.70
2018-06-28T08:52:30.305Z,81.20
2018-06-28T08:54:58.798Z,81.30
2018-06-28T08:57:27.301Z,81.90
2018-06-28T08:59:55.755Z,81.90
2018-06-28T09:02:24.293Z,79.60
2018-06-28T09:04:52.737Z,79.50
2018-06-28T09:07:21.222Z,78.90
2018-06-28T09:09:49.684Z,76.80
2018-06-28T09:12:18.221Z,77.20
2018-06-28T09:14:46.702Z,78.70
2018-06-28T09:17:15.151Z,78.30
2018-06-28T09:19:43.614Z,77.50
2018-06-28T09:22:12.094Z,77.80
2018-06-28T09:24:40.575Z,76.30
2018-06-28T09:27:09.079Z,74.90
2018-06-28T09:29:37.585Z,72.60
2018-06-28T09:32:06.069Z,71.80
2018-06-28T09:34:34.518Z,74.40
2018-06-28T09:37:02.994Z,73.80
2018-06-28T09:39:31.449Z,73.80
2018-06-28T09:41:59.899Z,74.00
2018-06-28T09:46:56.487Z,73.00
2018-06-28T09:49:24.969Z,73.50
2018-06-28T09:51:53.404Z,72.30
2018-06-28T09:54:21.861Z,72.50
2018-06-28T09:56:50.321Z,70.80
2018-06-28T09:59:18.834Z,72.50
2018-06-28T10:01:47.278Z,71.50
2018-06-28T10:04:15.778Z,70.90
2018-06-28T10:06:44.248Z,68.10
2018-06-28T10:09:12.714Z,72.00
2018-06-28T10:11:41.239Z,72.90
2018-06-28T10:14:09.736Z,72.70
2018-06-28T10:19:06.367Z,70.20
2018-06-28T10:21:34.842Z,70.00
2018-06-28T10:24:03.310Z,65.10
2018-06-28T10:26:31.769Z,62.90
2018-06-28T10:29:00.245Z,58.60
2018-06-28T10:31:28.750Z,55.40
2018-06-28T10:33:57.164Z,54.80
2018-06-28T10:38:53.773Z,55.70
2018-06-28T10:41:22.281Z,54.40
2018-06-28T10:43:50.713Z,52.00
2018-06-28T10:46:19.171Z,53.10
2018-06-28T10:48:47.643Z,53.20
2018-06-28T10:56:12.369Z,51.90
2018-06-28T10:58:40.840Z,50.60
2018-06-28T11:03:37.457Z,49.50
2018-06-28T11:06:05.914Z,48.40
2018-06-28T11:08:34.378Z,46.80
2018-06-28T11:11:02.857Z,45.90
2018-06-28T11:13:31.313Z,47.20
2018-06-28T11:18:27.949Z,47.10
2018-06-28T11:20:56.386Z,46.70
2018-06-28T11:23:24.878Z,45.60
2018-06-28T11:25:53.339Z,47.40
2018-06-28T11:28:21.851Z,46.90
2018-06-28T11:30:50.300Z,46.80
2018-06-28T11:33:18.753Z,45.60
2018-06-28T11:35:47.205Z,47.90
2018-06-28T11:38:15.689Z,47.70
2018-06-28T11:40:44.123Z,49.50
2018-06-28T11:43:12.607Z,49.60
2018-06-28T11:45:41.054Z,49.10
2018-06-28T11:50:37.654Z,49.90
2018-06-28T11:53:06.097Z,50.20
2018-06-28T11:55:34.702Z,49.10
2018-06-28T11:58:03.134Z,50.60
2018-06-28T12:00:31.608Z,50.90
2018-06-28T12:03:00.050Z,49.10
2018-06-28T12:05:28.548Z,48.20
2018-06-28T12:07:56.978Z,46.50
2018-06-28T12:10:25.473Z,47.90
2018-06-28T12:12:53.930Z,47.40
2018-06-28T12:15:22.485Z,50.10
2018-06-28T12:17:50.905Z,52.90
2018-06-28T12:20:19.389Z,51.60
2018-06-28T12:22:47.840Z,50.30
2018-06-28T12:27:44.473Z,50.00
2018-06-28T12:30:13.055Z,50.10
2018-06-28T12:32:41.521Z,49.40
2018-06-28T12:35:09.990Z,49.00
2018-06-28T12:37:38.444Z,47.50
2018-06-28T12:40:06.909Z,49.50
2018-06-28T12:42:35.377Z,48.60
2018-06-28T12:45:05.487Z,46.70
2018-06-28T12:50:09.480Z,50.40
2018-06-28T12:52:44.500Z,50.70
2018-06-28T12:55:14.586Z,52.20
2018-06-28T12:57:43.132Z,51.50
2018-06-28T13:00:11.850Z,52.40
2018-06-28T13:02:40.469Z,54.50
2018-06-28T13:05:09.074Z,50.50
2018-06-28T13:07:37.598Z,50.60
2018-06-28T13:12:34.770Z,49.80
2018-06-28T13:15:03.253Z,48.70
2018-06-28T13:17:31.714Z,49.80
2018-06-28T13:22:28.440Z,46.90
2018-06-28T13:24:57.896Z,45.40
2018-06-28T13:27:26.378Z,46.60
2018-06-28T13:29:54.881Z,49.20
2018-06-28T13:32:23.353Z,50.40
2018-06-28T13:34:51.817Z,50.00
2018-06-28T13:37:20.330Z,50.20
2018-06-28T13:39:48.814Z,51.20
2018-06-28T13:42:17.411Z,49.10
2018-06-28T13:44:45.743Z,46.30
2018-06-28T13:47:14.212Z,42.10
2018-06-28T13:49:42.693Z,40.50
2018-06-28T13:52:11.138Z,42.30
2018-06-28T13:54:39.582Z,39.50
2018-06-28T13:57:08.054Z,40.30
2018-06-28T13:59:36.533Z,41.00
2018-06-28T14:02:05.014Z,38.00
2018-06-28T14:04:33.455Z,38.60
2018-06-28T14:09:30.046Z,38.00
2018-06-28T14:11:58.517Z,38.80
2018-06-28T14:14:26.981Z,42.30
2018-06-28T14:16:55.436Z,46.20
2018-06-28T14:19:23.869Z,46.40
2018-06-28T14:21:52.321Z,48.90
2018-06-28T14:24:20.791Z,51.00
2018-06-28T14:31:45.589Z,55.30
2018-06-28T14:34:14.042Z,56.30
2018-06-28T14:36:42.514Z,56.60
2018-06-28T14:39:11.066Z,57.60
2018-06-28T14:41:39.607Z,58.60
2018-06-28T14:44:08.058Z,58.30
2018-06-28T14:46:36.610Z,58.30
2018-06-28T14:49:05.101Z,58.20
2018-06-28T14:51:33.534Z,58.80
2018-06-28T14:54:02.026Z,59.10
2018-06-28T14:56:30.465Z,58.50
2018-06-28T14:58:58.947Z,56.50
2018-06-28T15:01:27.386Z,55.90
2018-06-28T15:06:24.265Z,59.50
2018-06-28T15:08:52.714Z,53.70
2018-06-28T15:11:21.159Z,49.40
2018-06-28T15:13:49.661Z,44.60
2018-06-28T15:16:18.080Z,45.00
2018-06-28T15:18:46.545Z,48.30
2018-06-28T15:26:11.293Z,51.40
2018-06-28T15:28:39.797Z,49.10
2018-06-28T15:31:08.361Z,50.00
2018-06-28T15:33:36.830Z,51.50
2018-06-28T15:36:05.300Z,53.10
2018-06-28T15:38:33.790Z,52.10
2018-06-28T15:41:02.467Z,51.20
2018-06-28T15:43:30.912Z,51.30
2018-06-28T15:45:59.375Z,54.10
2018-06-28T15:48:27.882Z,56.50
2018-06-28T15:51:04.025Z,57.20
2018-06-28T15:53:32.500Z,57.70
2018-06-28T15:56:00.933Z,56.50
2018-06-28T15:58:29.370Z,58.70
2018-06-28T16:00:57.840Z,59.90
2018-06-28T16:03:26.273Z,61.60
2018-06-28T16:05:54.722Z,61.70
2018-06-28T16:08:23.190Z,62.90
2018-06-28T16:10:51.667Z,63.30
2018-06-28T16:13:20.149Z,63.30
2018-06-28T16:15:48.601Z,63.20
2018-06-28T16:18:17.082Z,63.70
2018-06-28T16:20:45.573Z,64.50
2018-06-28T16:23:14.024Z,65.30
2018-06-28T16:25:42.502Z,66.20
2018-06-28T16:28:12.580Z,67.80
2018-06-28T16:30:41.103Z,67.50
2018-06-28T16:33:09.586Z,67.50
2018-06-28T16:35:38.042Z,68.20
2018-06-28T16:38:06.478Z,68.30
2018-06-28T16:40:34.970Z,68.10
2018-06-28T16:43:03.422Z,67.60
2018-06-28T16:45:32.150Z,69.00
2018-06-28T16:50:28.757Z,69.60
2018-06-28T16:52:57.213Z,71.50
2018-06-28T16:57:53.828Z,74.70
2018-06-28T17:00:22.230Z,72.60
2018-06-28T17:02:50.689Z,73.00
2018-06-28T17:05:19.169Z,74.20
2018-06-28T17:07:47.728Z,74.40
2018-06-28T17:10:16.129Z,73.90
2018-06-28T17:12:44.582Z,71.90
2018-06-28T17:15:13.050Z,73.20
2018-06-28T17:17:41.982Z,74.70
2018-06-28T17:20:10.545Z,73.40
2018-06-28T17:22:38.966Z,73.90
2018-06-28T17:27:35.777Z,75.10
2018-06-28T17:30:05.677Z,78.00
2018-06-28T17:32:34.137Z,76.30
2018-06-28T17:35:02.580Z,76.50
2018-06-28T17:37:31.090Z,77.30
2018-06-28T17:39:59.540Z,78.40
2018-06-28T17:42:28.018Z,77.90
2018-06-28T17:44:56.489Z,74.10
2018-06-28T17:47:24.940Z,73.80
2018-06-28T17:49:53.470Z,73.00
2018-06-28T17:52:21.926Z,73.30
2018-06-28T17:54:50.375Z,72.40
2018-06-28T17:57:18.834Z,72.50
2018-06-28T17:59:49.770Z,72.10
2018-06-28T18:04:46.374Z,73.90
2018-06-28T18:07:14.813Z,73.70
2018-06-28T18:09:43.260Z,75.90
2018-06-28T18:12:11.697Z,77.70
2018-06-28T18:14:40.146Z,76.60
2018-06-28T18:17:08.608Z,76.10
2018-06-28T18:19:37.085Z,76.60
2018-06-28T18:22:05.594Z,77.40
2018-06-28T18:24:34.134Z,78.00
2018-06-28T18:27:02.608Z,78.80
2018-06-28T18:29:31.093Z,79.50
2018-06-28T18:31:59.567Z,80.60
2018-06-28T18:34:28.032Z,80.70
2018-06-28T18:36:56.491Z,81.10
2018-06-28T18:39:24.965Z,82.30
2018-06-28T18:41:53.463Z,83.00
2018-06-28T18:44:21.902Z,84.00
2018-06-28T18:46:50.370Z,84.70
2018-06-28T18:49:18.818Z,84.70
2018-06-28T18:51:47.271Z,85.70
2018-06-28T18:54:15.690Z,85.00
2018-06-28T18:56:44.203Z,85.50
2018-06-28T18:59:12.655Z,85.50
2018-06-28T19:01:41.128Z,86.20
2018-06-28T19:04:09.785Z,85.20
2018-06-28T19:06:38.281Z,84.90
2018-06-28T19:09:09.523Z,84.90
2018-06-28T19:11:37.980Z,83.60
2018-06-28T19:14:12.035Z,82.50
2018-06-28T19:16:45.790Z,82.20
2018-06-28T19:19:14.257Z,83.80
2018-06-28T19:21:48.093Z,81.30
2018-06-28T19:24:17.010Z,80.80
2018-06-28T19:26:45.438Z,80.80
2018-06-28T19:29:19.267Z,81.00
2018-06-28T19:31:53.030Z,80.90
2018-06-28T19:34:21.482Z,80.90
2018-06-28T19:36:49.935Z,81.10
2018-06-28T19:39:23.875Z,81.80
2018-06-28T19:41:57.413Z,81.90
2018-06-28T19:44:25.876Z,82.20
2018-06-28T19:46:54.304Z,82.30
2018-06-28T19:49:28.119Z,81.30
2018-06-28T19:52:01.904Z,81.60
2018-06-28T19:54:30.397Z,81.10
2018-06-28T19:56:58.850Z,81.10
2018-06-28T19:59:27.310Z,80.90
2018-06-28T20:02:01.061Z,81.60
2018-06-28T20:04:34.856Z,82.60
2018-06-28T20:07:03.326Z,83.40
2018-06-28T20:09:32.946Z,84.70
2018-06-28T20:12:01.470Z,85.20
2018-06-28T20:14:35.296Z,85.70
2018-06-28T20:17:09.157Z,86.30
2018-06-28T20:19:43.073Z,86.50
2018-06-28T20:22:11.585Z,86.90
2018-06-28T20:24:40.125Z,86.80
2018-06-28T20:27:13.892Z,87.70
2018-06-28T20:29:47.726Z,88.10
2018-06-28T20:32:21.645Z,88.50
2018-06-28T20:34:50.176Z,88.90
2018-06-28T20:37:19.422Z,89.20
2018-06-28T20:39:47.942Z,89.50
2018-06-28T20:42:16.511Z,90.20
2018-06-28T20:44:45.043Z,90.30
2018-06-28T20:47:13.572Z,90.60
2018-06-28T20:49:42.187Z,91.20
2018-06-28T20:52:10.634Z,91.10
2018-06-28T20:54:39.205Z,91.40
2018-06-28T20:57:07.897Z,91.70
2018-06-28T20:59:36.346Z,91.90
2018-06-28T21:02:04.808Z,92.10
2018-06-28T21:04:33.315Z,92.30
2018-06-28T21:07:02.392Z,92.20
2018-06-28T21:09:30.870Z,92.30
2018-06-28T21:11:59.340Z,92.30
2018-06-28T21:14:27.800Z,92.30
2018-06-28T21:16:56.454Z,92.50
2018-06-28T21:19:24.888Z,92.50
2018-06-28T21:21:53.351Z,92.50
2018-06-28T21:26:49.946Z,92.60
2018-06-28T21:29:18.666Z,92.60
2018-06-28T21:31:47.128Z,93.00
2018-06-28T21:34:15.597Z,93.10
2018-06-28T21:36:44.268Z,93.10
2018-06-28T21:39:12.935Z,92.90
2018-06-28T21:41:41.487Z,93.50
2018-06-28T21:44:09.921Z,93.50
2018-06-28T21:46:38.372Z,93.60
2018-06-28T21:49:06.866Z,93.70
2018-06-28T21:51:35.407Z,93.80
2018-06-28T21:54:03.894Z,93.90
2018-06-28T21:56:32.347Z,94.10
2018-06-28T21:59:00.849Z,94.00
2018-06-28T22:01:29.288Z,93.80
2018-06-28T22:03:57.732Z,93.50
2018-06-28T22:08:54.366Z,93.80
2018-06-28T22:11:22.808Z,93.80
2018-06-28T22:13:51.253Z,93.90
2018-06-28T22:16:19.732Z,94.30
2018-06-28T22:18:48.154Z,95.00
2018-06-28T22:21:16.609Z,95.40
2018-06-28T22:23:45.074Z,95.50
2018-06-28T22:26:13.553Z,95.80
2018-06-28T22:28:42.010Z,95.70
2018-06-28T22:31:10.469Z,96.00
2018-06-28T22:33:38.924Z,96.00
2018-06-28T22:36:07.406Z,96.10
2018-06-28T22:38:35.833Z,96.30
2018-06-28T22:43:32.412Z,96.40
2018-06-28T22:46:00.869Z,96.60
2018-06-28T22:48:29.301Z,96.70
2018-06-28T22:50:57.767Z,96.60
2018-06-28T22:53:26.235Z,96.60
2018-06-28T22:55:54.656Z,96.70
2018-06-28T22:58:23.131Z,96.90
2018-06-28T23:00:51.591Z,97.30
2018-06-28T23:03:20.049Z,97.40
2018-06-28T23:05:48.981Z,97.90
2018-06-28T23:08:17.474Z,97.90
2018-06-28T23:10:45.913Z,97.80
2018-06-28T23:13:15.315Z,97.80
2018-06-28T23:15:43.739Z,98.10
2018-06-28T23:18:12.199Z,98.30
2018-06-28T23:20:40.634Z,98.20
2018-06-28T23:23:09.110Z,98.10
2018-06-28T23:25:37.542Z,98.00
2018-06-28T23:28:06.022Z,97.80
2018-06-28T23:30:34.470Z,97.80
2018-06-28T23:33:03.019Z,97.90
2018-06-28T23:35:31.395Z,98.00
2018-06-28T23:37:59.818Z,97.90
2018-06-28T23:40:28.265Z,98.00
2018-06-28T23:45:24.825Z,98.40
2018-06-28T23:47:53.260Z,98.60
2018-06-28T23:50:21.713Z,99.00
2018-06-28T23:52:50.149Z,99.30
2018-06-28T23:57:46.748Z,99.50
